createdAt,value
2018-10-05T00:02:18.679Z,5.80
2018-10-05T00:04:47.152Z,6.10
2018-10-05T00:07:15.610Z,6.00
2018-10-05T00:12:12.231Z,5.70
2018-10-05T00:14:40.734Z,6.00
2018-10-05T00:17:09.210Z,6.10
2018-10-05T00:19:37.688Z,6.10
2018-10-05T00:22:06.228Z,6.10
2018-10-05T00:24:34.830Z,6.10
2018-10-05T00:27:03.262Z,6.10
2018-10-05T00:29:31.718Z,6.00
2018-10-05T00:32:00.190Z,6.00
2018-10-05T00:34:28.734Z,6.00
2018-10-05T00:36:57.216Z,5.90
2018-10-05T00:39:25.690Z,5.80
2018-10-05T00:41:54.162Z,5.70
2018-10-05T00:44:22.754Z,5.60
2018-10-05T00:46:51.254Z,5.50
2018-10-05T00:49:19.714Z,5.50
2018-10-05T00:51:48.200Z,5.40
2018-10-05T00:54:16.661Z,5.40
2018-10-05T00:56:45.148Z,5.40
2018-10-05T00:59:13.652Z,5.40
2018-10-05T01:01:42.134Z,5.40
2018-10-05T01:04:10.612Z,5.10
2018-10-05T01:06:39.110Z,5.30
2018-10-05T01:09:08.321Z,5.30
2018-10-05T01:11:36.937Z,5.30
2018-10-05T01:14:05.422Z,5.20
2018-10-05T01:16:33.874Z,5.20
2018-10-05T01:19:02.355Z,5.10
2018-10-05T01:21:30.831Z,5.10
2018-10-05T01:23:59.292Z,5.10
2018-10-05T01:26:27.958Z,5.10
2018-10-05T01:28:56.467Z,5.00
2018-10-05T01:31:25.015Z,5.00
2018-10-05T01:33:53.499Z,5.10
2018-10-05T01:36:21.953Z,5.10
2018-10-05T01:38:50.446Z,5.10
2018-10-05T01:41:18.911Z,5.20
2018-10-05T01:43:47.377Z,5.10
2018-10-05T01:46:15.861Z,5.10
2018-10-05T01:48:44.399Z,9.30
2018-10-05T01:53:41.066Z,5.10
2018-10-05T01:56:09.568Z,5.10
2018-10-05T01:58:38.035Z,5.10
2018-10-05T02:01:06.521Z,5.30
2018-10-05T02:03:34.985Z,4.90
2018-10-05T02:06:03.459Z,4.50
2018-10-05T02:08:31.910Z,4.90
2018-10-05T02:11:00.373Z,5.00
2018-10-05T02:13:28.853Z,4.80
2018-10-05T02:15:57.326Z,4.90
2018-10-05T02:18:25.778Z,4.50
2018-10-05T02:20:54.229Z,4.50
2018-10-05T02:23:22.697Z,4.70
2018-10-05T02:25:51.180Z,4.50
2018-10-05T02:28:19.648Z,4.50
2018-10-05T02:30:48.130Z,4.40
2018-10-05T02:33:16.574Z,4.50
2018-10-05T02:35:45.152Z,4.50
2018-10-05T02:38:13.615Z,4.60
2018-10-05T02:40:42.110Z,4.50
2018-10-05T02:43:10.630Z,4.60
2018-10-05T02:45:39.125Z,4.40
2018-10-05T02:48:07.677Z,4.40
2018-10-05T02:50:36.338Z,4.50
2018-10-05T02:53:05.141Z,4.40
2018-10-05T02:55:33.634Z,4.40
2018-10-05T02:58:02.083Z,4.40
2018-10-05T03:00:41.983Z,4.40
2018-10-05T03:03:10.518Z,4.50
2018-10-05T03:05:38.964Z,4.40
2018-10-05T03:08:07.447Z,4.40
2018-10-05T03:10:35.977Z,4.40
2018-10-05T03:13:04.469Z,4.30
2018-10-05T03:15:32.975Z,4.20
2018-10-05T03:18:01.474Z,4.30
2018-10-05T03:20:29.922Z,4.30
2018-10-05T03:22:58.375Z,4.30
2018-10-05T03:25:26.895Z,4.30
2018-10-05T03:27:55.363Z,4.30
2018-10-05T03:30:23.863Z,4.30
2018-10-05T03:32:52.354Z,4.10
2018-10-05T03:35:20.806Z,4.30
2018-10-05T03:37:49.305Z,4.30
2018-10-05T03:40:17.766Z,4.10
2018-10-05T03:42:46.624Z,3.60
2018-10-05T03:45:15.126Z,4.20
2018-10-05T03:47:43.569Z,4.00
2018-10-05T03:50:12.091Z,4.50
2018-10-05T03:52:40.564Z,4.10
2018-10-05T03:55:09.032Z,4.10
2018-10-05T03:57:37.501Z,3.90
2018-10-05T04:00:06.177Z,4.50
2018-10-05T04:02:34.666Z,4.30
2018-10-05T04:05:03.168Z,4.00
2018-10-05T04:07:31.702Z,4.00
2018-10-05T04:10:00.174Z,3.90
2018-10-05T04:12:28.661Z,3.90
2018-10-05T04:14:57.109Z,4.10
2018-10-05T04:17:25.557Z,4.00
2018-10-05T04:19:54.062Z,4.00
2018-10-05T04:22:26.047Z,3.90
2018-10-05T04:24:54.564Z,3.90
2018-10-05T04:27:23.185Z,3.80
2018-10-05T04:29:51.715Z,3.70
2018-10-05T04:32:20.176Z,3.60
2018-10-05T04:34:48.667Z,3.60
2018-10-05T04:37:17.170Z,3.80
2018-10-05T04:39:45.706Z,3.70
2018-10-05T04:42:14.174Z,3.70
2018-10-05T04:44:42.654Z,3.70
2018-10-05T04:47:11.124Z,3.40
2018-10-05T04:49:39.753Z,3.70
2018-10-05T04:52:08.115Z,3.60
2018-10-05T04:54:36.604Z,3.50
2018-10-05T04:57:05.105Z,3.60
2018-10-05T04:59:33.596Z,4.00
2018-10-05T05:02:02.359Z,3.60
2018-10-05T05:06:58.993Z,3.50
2018-10-05T05:09:27.480Z,3.60
2018-10-05T05:11:55.965Z,3.60
2018-10-05T05:14:24.472Z,3.50
2018-10-05T05:16:52.975Z,3.30
2018-10-05T05:19:21.491Z,3.40
2018-10-05T05:21:50.023Z,3.40
2018-10-05T05:24:18.548Z,3.40
2018-10-05T05:26:47.085Z,3.20
2018-10-05T05:29:15.577Z,3.50
2018-10-05T05:31:44.389Z,3.20
2018-10-05T05:34:12.880Z,3.30
2018-10-05T05:36:41.423Z,3.40
2018-10-05T05:39:09.977Z,3.30
2018-10-05T05:41:38.477Z,3.40
2018-10-05T05:44:06.969Z,3.50
2018-10-05T05:46:35.511Z,3.50
2018-10-05T05:49:04.146Z,3.50
2018-10-05T05:51:32.641Z,3.60
2018-10-05T05:54:01.254Z,3.60
2018-10-05T05:56:29.693Z,3.60
2018-10-05T05:58:58.196Z,3.50
2018-10-05T06:01:26.709Z,3.60
2018-10-05T06:03:55.228Z,3.60
2018-10-05T06:06:23.757Z,3.80
2018-10-05T06:08:52.274Z,3.80
2018-10-05T06:11:20.814Z,3.90
2018-10-05T06:13:49.332Z,3.90
2018-10-05T06:16:17.841Z,4.00
2018-10-05T06:18:46.375Z,4.00
2018-10-05T06:21:14.893Z,4.10
2018-10-05T06:23:43.398Z,4.00
2018-10-05T06:26:11.910Z,4.30
2018-10-05T06:28:40.412Z,4.10
2018-10-05T06:31:08.937Z,4.30
2018-10-05T06:33:37.400Z,4.30
2018-10-05T06:38:34.401Z,4.30
2018-10-05T06:41:02.933Z,4.50
2018-10-05T06:43:31.414Z,4.40
2018-10-05T06:45:59.924Z,4.50
2018-10-05T06:48:28.423Z,4.60
2018-10-05T06:50:56.982Z,4.70
2018-10-05T06:53:25.483Z,5.00
2018-10-05T06:58:22.360Z,5.40
2018-10-05T07:00:50.834Z,4.90
2018-10-05T07:03:19.378Z,5.10
2018-10-05T07:05:47.941Z,5.30
2018-10-05T07:08:16.448Z,5.40
2018-10-05T07:13:13.158Z,5.50
2018-10-05T07:15:41.742Z,5.60
2018-10-05T07:18:10.255Z,5.80
2018-10-05T07:20:38.775Z,6.30
2018-10-05T07:23:07.390Z,6.10
2018-10-05T07:25:35.912Z,6.20
2018-10-05T07:28:04.459Z,6.60
2018-10-05T07:30:32.960Z,6.50
2018-10-05T07:33:01.416Z,6.90
2018-10-05T07:35:29.982Z,6.80
2018-10-05T07:37:58.484Z,7.20
2018-10-05T07:40:26.964Z,7.60
2018-10-05T07:42:55.471Z,7.60
2018-10-05T07:45:23.965Z,8.00
2018-10-05T07:47:52.460Z,8.40
2018-10-05T07:50:21.002Z,8.40
2018-10-05T07:52:49.518Z,8.60
2018-10-05T07:55:18.061Z,8.60
2018-10-05T07:57:46.593Z,8.70
2018-10-05T08:00:15.094Z,9.20
2018-10-05T08:02:43.608Z,9.20
2018-10-05T08:05:12.118Z,9.50
2018-10-05T08:07:40.699Z,9.60
2018-10-05T08:10:09.216Z,9.80
2018-10-05T08:12:37.749Z,10.30
2018-10-05T08:15:06.756Z,10.80
2018-10-05T08:17:35.287Z,11.30
2018-10-05T08:20:03.814Z,11.90
2018-10-05T08:22:32.379Z,12.40
2018-10-05T08:25:00.890Z,12.90
2018-10-05T08:27:29.407Z,13.50
2018-10-05T08:29:57.921Z,14.10
2018-10-05T08:32:26.373Z,14.50
2018-10-05T08:34:54.925Z,14.70
2018-10-05T08:37:23.374Z,15.10
2018-10-05T08:39:51.989Z,15.20
2018-10-05T08:42:20.428Z,15.60
2018-10-05T08:44:48.911Z,16.10
2018-10-05T08:47:17.417Z,16.40
2018-10-05T08:49:45.921Z,16.80
2018-10-05T08:52:14.456Z,16.80
2018-10-05T08:54:42.881Z,16.80
2018-10-05T08:57:11.396Z,19.50
2018-10-05T08:59:39.899Z,17.20
2018-10-05T09:02:08.379Z,17.80
2018-10-05T09:04:36.865Z,17.80
2018-10-05T09:07:05.493Z,17.90
2018-10-05T09:09:33.955Z,18.40
2018-10-05T09:12:02.433Z,18.80
2018-10-05T09:14:30.947Z,19.30
2018-10-05T09:16:59.413Z,19.70
2018-10-05T09:19:27.885Z,20.20
2018-10-05T09:21:56.409Z,20.50
2018-10-05T09:24:24.939Z,21.10
2018-10-05T09:26:53.413Z,21.20
2018-10-05T09:29:21.925Z,20.30
2018-10-05T09:31:50.398Z,20.20
2018-10-05T09:34:18.874Z,20.70
2018-10-05T09:36:47.373Z,21.10
2018-10-05T09:39:15.887Z,21.20
2018-10-05T09:41:44.469Z,21.50
2018-10-05T09:44:12.977Z,21.80
2018-10-05T09:46:41.469Z,21.60
2018-10-05T09:49:10.094Z,21.70
2018-10-05T09:51:39.031Z,21.90
2018-10-05T09:54:07.653Z,21.20
2018-10-05T09:56:36.198Z,20.70
2018-10-05T09:59:04.703Z,21.00
2018-10-05T10:01:38.925Z,21.40
2018-10-05T10:04:07.579Z,21.60
2018-10-05T10:06:36.102Z,22.40
2018-10-05T10:09:06.653Z,21.90
2018-10-05T10:11:35.178Z,22.40
2018-10-05T10:14:04.403Z,22.60
2018-10-05T10:16:33.118Z,22.80
2018-10-05T10:19:01.665Z,22.70
2018-10-05T10:21:30.185Z,22.90
2018-10-05T10:23:58.682Z,23.40
2018-10-05T10:26:27.173Z,22.80
2018-10-05T10:28:55.754Z,22.20
2018-10-05T10:31:24.413Z,22.50
2018-10-05T10:33:52.940Z,22.30
2018-10-05T10:36:21.423Z,23.10
2018-10-05T10:38:50.065Z,23.20
2018-10-05T10:41:18.648Z,23.30
2018-10-05T10:46:15.344Z,22.90
2018-10-05T10:48:43.934Z,23.20
2018-10-05T10:51:12.416Z,21.90
2018-10-05T10:53:40.884Z,22.40
2018-10-05T10:56:09.416Z,23.00
2018-10-05T10:58:37.855Z,23.00
2018-10-05T11:01:06.851Z,23.50
2018-10-05T11:03:35.331Z,23.70
2018-10-05T11:06:03.911Z,24.30
2018-10-05T11:08:32.396Z,24.60
2018-10-05T11:11:00.938Z,24.40
2018-10-05T11:13:29.377Z,24.60
2018-10-05T11:15:57.858Z,24.50
2018-10-05T11:18:26.377Z,23.20
2018-10-05T11:20:54.875Z,23.30
2018-10-05T11:23:23.494Z,23.60
2018-10-05T11:25:52.103Z,23.70
2018-10-05T11:28:20.601Z,23.60
2018-10-05T11:30:49.077Z,24.00
2018-10-05T11:33:17.552Z,23.80
2018-10-05T11:35:46.059Z,24.30
2018-10-05T11:38:14.612Z,24.60
2018-10-05T11:40:43.141Z,24.50
2018-10-05T11:43:11.621Z,25.10
2018-10-05T11:45:40.093Z,25.10
2018-10-05T11:48:08.539Z,24.40
2018-10-05T11:55:33.371Z,24.00
2018-10-05T11:58:01.833Z,24.50
2018-10-05T12:00:30.409Z,24.70
2018-10-05T12:02:58.871Z,24.70
2018-10-05T12:05:27.360Z,24.80
2018-10-05T12:07:55.851Z,23.90
2018-10-05T12:10:24.326Z,24.40
2018-10-05T12:12:52.823Z,24.30
2018-10-05T12:15:21.291Z,24.60
2018-10-05T12:17:49.786Z,25.40
2018-10-05T12:20:18.291Z,25.10
2018-10-05T12:22:46.758Z,24.80
2018-10-05T12:25:15.241Z,24.60
2018-10-05T12:27:43.716Z,24.20
2018-10-05T12:30:12.224Z,22.60
2018-10-05T12:32:40.703Z,22.40
2018-10-05T12:35:09.186Z,22.10
2018-10-05T12:37:37.672Z,22.00
2018-10-05T12:40:06.219Z,21.70
2018-10-05T12:42:34.690Z,21.40
2018-10-05T12:45:03.162Z,21.00
2018-10-05T12:47:31.639Z,20.90
2018-10-05T12:50:00.124Z,20.90
2018-10-05T12:52:28.605Z,20.40
2018-10-05T12:54:57.083Z,20.20
2018-10-05T12:57:25.531Z,20.20
2018-10-05T12:59:54.087Z,20.10
2018-10-05T13:02:22.715Z,20.10
2018-10-05T13:04:51.226Z,20.10
2018-10-05T13:07:19.667Z,19.90
2018-10-05T13:09:48.192Z,19.90
2018-10-05T13:12:16.669Z,19.70
2018-10-05T13:14:45.132Z,19.70
2018-10-05T13:17:13.579Z,19.80
2018-10-05T13:19:42.060Z,19.80
2018-10-05T13:22:10.550Z,19.80
2018-10-05T13:24:39.074Z,19.90
2018-10-05T13:27:07.513Z,19.80
2018-10-05T13:29:36.098Z,19.90
2018-10-05T13:32:04.548Z,19.90
2018-10-05T13:34:33.040Z,20.00
2018-10-05T13:37:01.519Z,20.00
2018-10-05T13:39:30.030Z,19.70
2018-10-05T13:41:58.607Z,19.90
2018-10-05T13:44:27.014Z,20.00
2018-10-05T13:46:55.533Z,20.00
2018-10-05T13:49:24.005Z,20.00
2018-10-05T13:51:52.467Z,19.80
2018-10-05T13:56:49.143Z,20.40
2018-10-05T13:59:17.622Z,19.50
2018-10-05T14:01:46.147Z,19.50
2018-10-05T14:04:14.614Z,19.50
2018-10-05T14:06:43.105Z,19.60
2018-10-05T14:09:11.724Z,19.50
2018-10-05T14:11:40.227Z,19.50
2018-10-05T14:14:08.782Z,19.50
2018-10-05T14:16:37.265Z,19.60
2018-10-05T14:19:05.982Z,19.60
2018-10-05T14:21:34.558Z,19.70
2018-10-05T14:24:03.414Z,19.70
2018-10-05T14:26:31.954Z,19.70
2018-10-05T14:29:00.519Z,20.00
2018-10-05T14:31:29.060Z,19.80
2018-10-05T14:33:57.596Z,19.80
2018-10-05T14:36:26.070Z,19.60
2018-10-05T14:38:54.618Z,19.50
2018-10-05T14:41:23.188Z,19.30
2018-10-05T14:43:51.788Z,19.20
2018-10-05T14:46:20.358Z,18.90
2018-10-05T14:48:48.910Z,18.70
2018-10-05T14:51:17.487Z,18.70
2018-10-05T14:53:45.979Z,18.80
2018-10-05T14:56:14.494Z,18.30
2018-10-05T14:58:43.093Z,18.60
2018-10-05T15:01:11.608Z,18.50
2018-10-05T15:03:40.118Z,18.60
2018-10-05T15:06:08.792Z,18.50
2018-10-05T15:08:37.278Z,18.50
2018-10-05T15:11:05.879Z,18.50
2018-10-05T15:13:34.403Z,18.40
2018-10-05T15:16:02.944Z,18.40
2018-10-05T15:18:31.493Z,18.30
2018-10-05T15:21:00.055Z,18.20
2018-10-05T15:23:28.582Z,18.10
2018-10-05T15:25:57.104Z,18.10
2018-10-05T15:28:25.590Z,18.10
2018-10-05T15:30:54.123Z,18.00
2018-10-05T15:33:22.694Z,18.00
2018-10-05T15:35:51.223Z,17.90
2018-10-05T15:38:19.798Z,17.80
2018-10-05T15:40:48.399Z,17.80
2018-10-05T15:43:17.873Z,17.70
2018-10-05T15:45:46.625Z,17.60
2018-10-05T15:48:15.224Z,17.60
2018-10-05T15:50:43.753Z,17.50
2018-10-05T15:53:12.283Z,17.50
2018-10-05T15:55:40.824Z,17.40
2018-10-05T15:58:09.445Z,17.50
2018-10-05T16:00:37.941Z,17.40
2018-10-05T16:03:06.513Z,17.10
2018-10-05T16:05:35.246Z,17.10
2018-10-05T16:08:03.705Z,17.00
2018-10-05T16:10:32.205Z,16.70
2018-10-05T16:13:00.840Z,16.60
2018-10-05T16:15:29.465Z,16.50
2018-10-05T16:17:57.934Z,16.60
2018-10-05T16:22:54.706Z,16.30
2018-10-05T16:25:23.215Z,15.90
2018-10-05T16:27:51.732Z,16.10
2018-10-05T16:30:20.268Z,15.70
2018-10-05T16:32:48.859Z,15.30
2018-10-05T16:35:17.332Z,15.50
2018-10-05T16:37:45.819Z,15.60
2018-10-05T16:40:14.374Z,15.40
2018-10-05T16:45:11.119Z,15.10
2018-10-05T16:50:07.948Z,14.70
2018-10-05T16:52:36.779Z,15.00
2018-10-05T16:55:05.372Z,15.00
2018-10-05T16:57:33.914Z,14.90
2018-10-05T17:00:02.431Z,14.80
2018-10-05T17:02:30.996Z,14.60
2018-10-05T17:04:59.558Z,14.40
2018-10-05T17:07:28.508Z,14.30
2018-10-05T17:09:57.104Z,14.20
2018-10-05T17:12:25.653Z,14.00
2018-10-05T17:14:54.274Z,14.10
2018-10-05T17:17:22.845Z,14.10
2018-10-05T17:19:52.403Z,13.80
2018-10-05T17:22:21.058Z,13.60
2018-10-05T17:24:50.618Z,13.60
2018-10-05T17:27:19.184Z,13.50
2018-10-05T17:29:47.849Z,13.50
2018-10-05T17:32:16.393Z,13.10
2018-10-05T17:34:44.958Z,13.40
2018-10-05T17:37:13.504Z,13.20
2018-10-05T17:39:42.022Z,13.20
2018-10-05T17:42:11.288Z,13.00
2018-10-05T17:44:39.832Z,13.10
2018-10-05T17:47:08.781Z,12.00
2018-10-05T17:49:37.348Z,13.00
2018-10-05T17:52:05.964Z,12.90
2018-10-05T17:54:35.048Z,12.90
2018-10-05T17:57:03.794Z,12.90
2018-10-05T17:59:32.429Z,12.90
2018-10-05T18:02:01.115Z,12.60
2018-10-05T18:04:29.694Z,12.60
2018-10-05T18:06:59.462Z,13.00
2018-10-05T18:09:29.908Z,12.60
2018-10-05T18:11:58.453Z,12.60
2018-10-05T18:14:28.700Z,12.50
2018-10-05T18:16:57.979Z,12.60
2018-10-05T18:21:55.334Z,12.40
2018-10-05T18:24:24.046Z,12.00
2018-10-05T18:26:54.418Z,12.30
2018-10-05T18:29:23.486Z,12.20
2018-10-05T18:31:52.408Z,12.10
2018-10-05T18:34:22.447Z,12.20
2018-10-05T18:36:52.503Z,11.80
2018-10-05T18:39:22.809Z,11.80
2018-10-05T18:41:51.409Z,11.90
2018-10-05T18:44:20.082Z,11.70
2018-10-05T18:49:17.114Z,12.10
2018-10-05T18:51:45.863Z,12.00
2018-10-05T18:54:14.476Z,11.70
2018-10-05T18:56:55.029Z,11.70
2018-10-05T18:59:24.328Z,12.00
2018-10-05T19:01:54.681Z,11.80
2018-10-05T19:04:23.389Z,11.70
2018-10-05T19:06:52.102Z,11.50
2018-10-05T19:09:25.123Z,11.40
2018-10-05T19:11:54.206Z,11.30
2018-10-05T19:14:23.665Z,11.30
2018-10-05T19:16:52.604Z,11.30
2018-10-05T19:19:21.363Z,11.10
2018-10-05T19:21:51.003Z,11.10
2018-10-05T19:24:19.609Z,10.70
2018-10-05T19:26:49.020Z,10.90
2018-10-05T19:29:17.743Z,11.20
2018-10-05T19:31:46.351Z,10.70
2018-10-05T19:34:15.422Z,10.80
2018-10-05T19:36:44.945Z,11.00
2018-10-05T19:39:14.547Z,11.00
2018-10-05T19:41:43.629Z,10.70
2018-10-05T19:44:13.191Z,10.50
2018-10-05T19:46:42.160Z,10.60
2018-10-05T19:51:39.844Z,10.50
2018-10-05T19:54:10.797Z,10.30
2018-10-05T19:56:44.269Z,10.00
2018-10-05T19:59:12.951Z,10.30
2018-10-05T20:01:42.768Z,10.20
2018-10-05T20:04:11.924Z,10.10
2018-10-05T20:06:40.877Z,10.20
2018-10-05T20:09:09.535Z,9.60
2018-10-05T20:11:38.758Z,10.00
2018-10-05T20:14:07.602Z,10.00
2018-10-05T20:16:37.715Z,9.90
2018-10-05T20:19:06.670Z,9.90
2018-10-05T20:21:35.397Z,9.80
2018-10-05T20:24:04.834Z,9.90
2018-10-05T20:26:34.099Z,10.00
2018-10-05T20:29:02.702Z,9.80
2018-10-05T20:31:31.391Z,9.60
2018-10-05T20:34:00.596Z,9.80
2018-10-05T20:36:29.443Z,9.70
2018-10-05T20:38:59.074Z,9.70
2018-10-05T20:41:27.740Z,9.50
2018-10-05T20:43:56.406Z,9.60
2018-10-05T20:46:25.072Z,9.50
2018-10-05T20:48:54.265Z,9.50
2018-10-05T20:51:23.731Z,9.40
2018-10-05T20:53:53.023Z,9.30
2018-10-05T20:56:21.764Z,9.70
2018-10-05T20:58:50.492Z,9.50
2018-10-05T21:01:19.333Z,9.20
2018-10-05T21:03:48.101Z,9.20
2018-10-05T21:06:17.775Z,9.20
2018-10-05T21:08:46.940Z,9.20
2018-10-05T21:11:15.552Z,9.10
2018-10-05T21:13:44.170Z,8.80
2018-10-05T21:16:13.635Z,9.10
2018-10-05T21:18:42.310Z,9.10
2018-10-05T21:21:11.514Z,8.70
2018-10-05T21:23:40.134Z,9.10
2018-10-05T21:26:08.747Z,9.00
2018-10-05T21:28:37.423Z,8.90
2018-10-05T21:31:06.924Z,9.10
2018-10-05T21:33:35.533Z,8.90
2018-10-05T21:36:04.255Z,8.80
2018-10-05T21:38:33.601Z,8.50
2018-10-05T21:41:02.197Z,8.60
2018-10-05T21:43:30.811Z,9.00
2018-10-05T21:45:59.442Z,8.40
2018-10-05T21:48:28.171Z,8.40
2018-10-05T21:50:56.747Z,8.70
2018-10-05T21:53:25.326Z,8.60
2018-10-05T21:55:53.859Z,8.50
2018-10-05T21:58:22.546Z,8.50
2018-10-05T22:00:51.133Z,8.50
2018-10-05T22:03:19.665Z,8.60
2018-10-05T22:05:48.215Z,8.70
2018-10-05T22:08:16.780Z,8.50
2018-10-05T22:10:45.269Z,8.50
2018-10-05T22:13:13.795Z,8.50
2018-10-05T22:15:42.483Z,8.20
2018-10-05T22:18:11.293Z,8.30
2018-10-05T22:20:40.006Z,8.20
2018-10-05T22:23:08.511Z,8.30
2018-10-05T22:25:36.981Z,8.30
2018-10-05T22:28:05.497Z,8.20
2018-10-05T22:30:34.057Z,8.00
2018-10-05T22:33:03.434Z,7.90
2018-10-05T22:35:32.339Z,7.90
2018-10-05T22:38:00.801Z,8.10
2018-10-05T22:40:29.305Z,8.50
2018-10-05T22:42:57.751Z,8.00
2018-10-05T22:45:26.216Z,7.40
2018-10-05T22:47:54.675Z,7.90
2018-10-05T22:50:23.175Z,8.00
2018-10-05T22:52:51.607Z,8.00
2018-10-05T22:55:20.083Z,8.20
2018-10-05T22:57:48.545Z,8.10
2018-10-05T23:00:17.020Z,7.80
2018-10-05T23:02:45.526Z,7.90
2018-10-05T23:05:14.073Z,7.90
2018-10-05T23:07:42.517Z,8.00
2018-10-05T23:10:10.985Z,7.80
2018-10-05T23:12:39.449Z,7.80
2018-10-05T23:15:08.057Z,7.80
2018-10-05T23:17:36.537Z,7.80
2018-10-05T23:25:01.367Z,7.80
2018-10-05T23:27:29.924Z,7.50
2018-10-05T23:29:58.439Z,7.60
2018-10-05T23:32:26.941Z,7.60
2018-10-05T23:34:55.414Z,7.70
2018-10-05T23:37:23.881Z,7.60
2018-10-05T23:39:52.365Z,7.60
2018-10-05T23:42:20.869Z,7.70
2018-10-05T23:47:17.562Z,7.60
2018-10-05T23:49:46.056Z,7.50
2018-10-05T23:52:50.437Z,7.60
2018-10-05T23:55:19.244Z,7.70
2018-10-05T23:57:48.115Z,7.60
